createdAt,value
2018-04-06T00:01:04.091Z,9.39
2018-04-06T00:06:04.635Z,9.41
2018-04-06T00:11:04.185Z,9.40
2018-04-06T00:16:04.455Z,9.42
2018-04-06T00:21:03.962Z,9.42
2018-04-06T00:26:04.177Z,9.42
2018-04-06T00:31:04.452Z,9.42
2018-04-06T00:36:03.971Z,9.42
2018-04-06T00:41:04.546Z,9.43
2018-04-06T00:46:03.876Z,9.42
2018-04-06T00:51:04.304Z,9.43
2018-04-06T00:56:04.538Z,9.44
2018-04-06T01:01:03.883Z,9.44
2018-04-06T01:06:04.344Z,9.45
2018-04-06T01:11:03.924Z,9.44
2018-04-06T01:16:04.226Z,9.44
2018-04-06T01:21:03.701Z,9.44
2018-04-06T01:26:03.945Z,9.44
2018-04-06T01:31:04.235Z,9.43
2018-04-06T01:36:03.722Z,9.44
2018-04-06T01:41:04.430Z,9.45
2018-04-06T01:46:03.634Z,9.45
2018-04-06T01:51:04.134Z,9.45
2018-04-06T01:56:04.329Z,9.44
2018-04-06T02:01:03.646Z,9.45
2018-04-06T02:06:04.077Z,9.46
2018-04-06T02:11:03.679Z,9.46
2018-04-06T02:16:03.910Z,9.44
2018-04-06T02:21:04.420Z,9.43
2018-04-06T02:26:03.629Z,9.44
2018-04-06T02:31:03.985Z,9.45
2018-04-06T02:36:04.450Z,9.44
2018-04-06T02:41:04.047Z,9.46
2018-04-06T02:46:04.294Z,9.47
2018-04-06T02:51:03.763Z,9.45
2018-04-06T02:56:03.952Z,9.45
2018-04-06T03:01:04.270Z,9.47
2018-04-06T03:06:03.737Z,9.46
2018-04-06T03:11:04.292Z,9.47
2018-04-06T03:16:03.614Z,9.44
2018-04-06T03:21:04.081Z,9.46
2018-04-06T03:26:04.278Z,9.44
2018-04-06T03:31:03.644Z,9.45
2018-04-06T03:36:04.067Z,9.46
2018-04-06T03:41:03.693Z,9.48
2018-04-06T03:46:03.958Z,9.47
2018-04-06T03:51:04.481Z,9.46
2018-04-06T03:56:03.695Z,9.47
2018-04-06T04:01:03.943Z,9.47
2018-04-06T04:06:04.428Z,9.46
2018-04-06T04:11:04.034Z,9.44
2018-04-06T04:16:04.349Z,9.43
2018-04-06T04:21:05.089Z,9.43
2018-04-06T04:26:04.931Z,9.41
2018-04-06T04:31:05.597Z,9.41
2018-04-06T04:36:03.934Z,9.42
2018-04-06T04:41:04.471Z,9.43
2018-04-06T04:46:03.733Z,9.37
2018-04-06T04:51:04.196Z,9.46
2018-04-06T04:56:04.420Z,9.43
2018-04-06T05:01:03.753Z,9.46
2018-04-06T05:06:04.221Z,9.56
2018-04-06T05:11:03.742Z,9.37
2018-04-06T05:16:04.073Z,9.29
2018-04-06T05:21:04.581Z,9.25
2018-04-06T05:26:03.767Z,9.26
2018-04-06T05:31:04.062Z,9.20
2018-04-06T05:36:04.494Z,9.25
2018-04-06T05:41:04.089Z,9.30
2018-04-06T05:46:04.390Z,9.30
2018-04-06T05:51:03.809Z,9.32
2018-04-06T05:56:04.035Z,9.27
2018-04-06T06:01:04.331Z,9.23
2018-04-06T06:06:03.817Z,9.25
2018-04-06T06:11:04.360Z,4.38
2018-04-06T06:16:03.679Z,4.86
2018-04-06T06:21:04.231Z,6.15
2018-04-06T06:26:04.375Z,6.26
2018-04-06T06:31:03.728Z,6.44
2018-04-06T06:36:04.223Z,6.61
2018-04-06T06:41:03.742Z,6.82
2018-04-06T06:46:04.045Z,7.05
2018-04-06T06:51:04.507Z,7.25
2018-04-06T06:56:03.704Z,7.38
2018-04-06T07:01:04.063Z,7.51
2018-04-06T07:06:04.515Z,7.64
2018-04-06T07:11:04.103Z,7.77
2018-04-06T07:16:04.363Z,7.88
2018-04-06T07:21:04.296Z,7.98
2018-04-06T07:26:04.195Z,8.09
2018-04-06T07:31:04.882Z,8.14
2018-04-06T07:36:03.854Z,8.25
2018-04-06T07:41:04.477Z,8.32
2018-04-06T07:46:03.776Z,8.38
2018-04-06T07:51:04.202Z,8.44
2018-04-06T07:56:04.454Z,8.50
2018-04-06T08:01:03.745Z,8.56
2018-04-06T08:06:09.138Z,8.61
2018-04-06T08:11:03.752Z,8.64
2018-04-06T08:16:04.092Z,8.69
2018-04-06T08:21:04.529Z,8.74
2018-04-06T08:26:03.698Z,8.76
2018-04-06T08:31:04.051Z,6.06
2018-04-06T08:36:04.551Z,7.01
2018-04-06T08:41:04.124Z,7.20
2018-04-06T08:46:04.505Z,8.03
2018-04-06T08:51:03.850Z,8.07
2018-04-06T08:56:04.075Z,8.02
2018-04-06T09:01:04.377Z,8.01
2018-04-06T09:06:03.854Z,7.99
2018-04-06T09:11:04.492Z,7.90
2018-04-06T09:16:03.747Z,7.87
2018-04-06T09:21:04.298Z,7.95
2018-04-06T09:26:04.534Z,7.91
2018-04-06T09:31:03.814Z,7.81
2018-04-06T09:36:04.308Z,7.81
2018-04-06T09:41:03.908Z,7.65
2018-04-06T09:46:04.131Z,7.69
2018-04-06T09:51:04.980Z,7.64
2018-04-06T09:56:03.795Z,7.59
2018-04-06T10:01:04.116Z,7.55
2018-04-06T10:06:04.618Z,7.52
2018-04-06T10:11:04.168Z,7.55
2018-04-06T10:16:04.476Z,7.70
2018-04-06T10:21:03.902Z,7.48
2018-04-06T10:26:04.188Z,7.67
2018-04-06T10:31:04.455Z,7.64
2018-04-06T10:36:03.928Z,7.50
2018-04-06T10:41:04.533Z,7.48
2018-04-06T10:46:03.801Z,7.39
2018-04-06T10:51:04.322Z,7.62
2018-04-06T10:56:04.483Z,7.39
2018-04-06T11:01:03.904Z,7.50
2018-04-06T11:06:04.280Z,7.34
2018-04-06T11:11:03.827Z,7.62
2018-04-06T11:16:04.299Z,7.59
2018-04-06T11:21:04.666Z,7.39
2018-04-06T11:26:03.815Z,7.41
2018-04-06T11:31:04.161Z,7.45
2018-04-06T11:36:04.621Z,6.48
2018-04-06T11:41:04.184Z,5.50
2018-04-06T11:46:04.506Z,4.16
2018-04-06T11:51:03.956Z,4.10
2018-04-06T11:56:04.167Z,5.61
2018-04-06T12:01:04.480Z,6.35
2018-04-06T12:06:03.940Z,5.14
2018-04-06T12:11:03.586Z,5.24
2018-04-06T12:16:03.843Z,4.72
2018-04-06T12:21:04.342Z,4.32
2018-04-06T12:26:03.585Z,4.34
2018-04-06T12:31:03.898Z,4.54
2018-04-06T12:36:04.380Z,4.57
2018-04-06T12:41:03.935Z,4.72
2018-04-06T12:46:04.234Z,4.91
2018-04-06T12:51:03.677Z,5.02
2018-04-06T12:56:03.911Z,5.46
2018-04-06T13:01:04.194Z,5.96
2018-04-06T13:06:03.700Z,6.48
2018-04-06T13:11:04.262Z,7.02
2018-04-06T13:16:03.577Z,6.91
2018-04-06T13:21:04.078Z,7.78
2018-04-06T13:26:04.273Z,7.73
2018-04-06T13:31:03.596Z,7.64
2018-04-06T13:36:04.067Z,7.58
2018-04-06T13:41:03.659Z,6.48
2018-04-06T13:46:03.930Z,7.23
2018-04-06T13:51:04.433Z,6.23
2018-04-06T13:56:03.664Z,6.62
2018-04-06T14:01:04.637Z,6.53
2018-04-06T14:06:04.379Z,7.45
2018-04-06T14:11:04.029Z,7.71
2018-04-06T14:16:04.273Z,7.70
2018-04-06T14:21:03.794Z,7.57
2018-04-06T14:26:03.981Z,7.42
2018-04-06T14:31:04.311Z,7.44
2018-04-06T14:36:03.989Z,7.22
2018-04-06T14:41:04.389Z,7.27
2018-04-06T14:46:04.042Z,7.46
2018-04-06T14:51:04.155Z,8.37
2018-04-06T14:56:04.380Z,8.43
2018-04-06T15:01:03.680Z,8.10
2018-04-06T15:06:04.101Z,7.73
2018-04-06T15:11:04.189Z,7.92
2018-04-06T15:16:04.034Z,7.49
2018-04-06T15:21:04.546Z,7.31
2018-04-06T15:26:03.765Z,6.20
2018-04-06T15:31:04.080Z,6.42
2018-04-06T15:36:04.540Z,6.63
2018-04-06T15:41:04.160Z,6.05
2018-04-06T15:46:04.401Z,6.29
2018-04-06T15:51:03.873Z,6.38
2018-04-06T15:56:04.113Z,5.59
2018-04-06T16:01:04.444Z,5.98
2018-04-06T16:06:03.839Z,5.78
2018-04-06T16:11:04.437Z,6.03
2018-04-06T16:16:03.684Z,4.17
2018-04-06T16:21:04.208Z,4.58
2018-04-06T16:26:04.411Z,4.84
2018-04-06T16:31:03.734Z,4.85
2018-04-06T16:36:04.268Z,4.81
2018-04-06T16:41:03.798Z,4.50
2018-04-06T16:46:04.067Z,4.49
2018-04-06T16:51:04.554Z,4.52
2018-04-06T16:56:03.737Z,4.27
2018-04-06T17:01:04.134Z,3.89
2018-04-06T17:06:04.631Z,3.81
2018-04-06T17:11:04.170Z,4.54
2018-04-06T17:16:04.460Z,5.31
2018-04-06T17:21:04.085Z,4.34
2018-04-06T17:26:04.208Z,4.25
2018-04-06T17:31:04.490Z,4.24
2018-04-06T17:36:03.948Z,4.07
2018-04-06T17:41:04.531Z,3.77
2018-04-06T17:46:03.852Z,3.65
2018-04-06T17:51:04.347Z,3.58
2018-04-06T17:56:04.573Z,3.51
2018-04-06T18:01:03.855Z,3.34
2018-04-06T18:06:04.353Z,3.37
2018-04-06T18:11:03.937Z,3.29
2018-04-06T18:16:04.257Z,3.41
2018-04-06T18:21:03.879Z,3.30
2018-04-06T18:26:04.409Z,3.41
2018-04-06T18:31:04.355Z,3.38
2018-04-06T18:36:03.736Z,3.29
2018-04-06T18:41:04.360Z,3.32
2018-04-06T18:46:03.681Z,3.30
2018-04-06T18:51:04.098Z,3.35
2018-04-06T18:56:04.582Z,3.44
2018-04-06T19:01:03.608Z,3.42
2018-04-06T19:06:04.045Z,3.40
2018-04-06T19:11:03.747Z,3.50
2018-04-06T19:16:04.449Z,3.68
2018-04-06T19:21:04.500Z,3.58
2018-04-06T19:26:03.699Z,3.59
2018-04-06T19:31:03.979Z,3.70
2018-04-06T19:36:04.535Z,3.71
2018-04-06T19:41:04.119Z,3.71
2018-04-06T19:46:04.436Z,3.76
2018-04-06T19:51:03.857Z,3.85
2018-04-06T19:56:04.062Z,3.85
2018-04-06T20:01:04.359Z,3.85
2018-04-06T20:06:03.841Z,3.92
2018-04-06T20:11:04.424Z,4.01
2018-04-06T20:16:03.711Z,4.21
2018-04-06T20:21:04.207Z,4.24
2018-04-06T20:26:04.447Z,4.35
2018-04-06T20:31:03.783Z,4.41
2018-04-06T20:36:04.219Z,4.42
2018-04-06T20:41:04.140Z,4.50
2018-04-06T20:46:04.200Z,4.51
2018-04-06T20:51:05.112Z,4.49
2018-04-06T20:56:04.336Z,4.55
2018-04-06T21:01:04.845Z,4.52
2018-04-06T21:06:04.539Z,4.53
2018-04-06T21:11:04.138Z,4.62
2018-04-06T21:16:04.448Z,4.64
2018-04-06T21:21:03.906Z,4.56
2018-04-06T21:26:04.133Z,4.54
2018-04-06T21:31:04.391Z,4.56
2018-04-06T21:36:03.933Z,4.57
2018-04-06T21:41:04.531Z,4.62
2018-04-06T21:46:03.792Z,4.80
2018-04-06T21:51:07.286Z,4.48
2018-04-06T21:56:04.953Z,4.45
2018-04-06T22:01:06.675Z,4.49
2018-04-06T22:06:04.830Z,4.49
2018-04-06T22:11:04.455Z,4.42
2018-04-06T22:16:04.156Z,4.44
2018-04-06T22:21:04.601Z,4.34
2018-04-06T22:26:04.109Z,4.29
2018-04-06T22:31:04.193Z,4.40
2018-04-06T22:36:04.711Z,4.39
2018-04-06T22:41:04.300Z,4.38
2018-04-06T22:46:04.545Z,4.77
2018-04-06T22:51:04.010Z,4.70
2018-04-06T22:56:04.245Z,4.59
2018-04-06T23:01:04.528Z,4.62
2018-04-06T23:06:04.008Z,4.60
2018-04-06T23:11:04.584Z,4.66
2018-04-06T23:16:03.865Z,4.69
2018-04-06T23:21:04.377Z,4.74
2018-04-06T23:26:04.579Z,4.75
2018-04-06T23:31:03.888Z,4.79
2018-04-06T23:36:04.385Z,4.83
2018-04-06T23:41:03.946Z,4.84
2018-04-06T23:46:04.239Z,4.91
2018-04-06T23:51:04.729Z,4.92
2018-04-06T23:56:03.933Z,4.90
